Zuni, New Mexico
Current Conditions -  °F | °C
As of 6:53 AM on Friday 24 Oct 2014 (Local Time) from KGUP Reporting Station
Clear Clear  
Wind Chill: 33°   Ceiling: Unl
Heat Index: 33°   Visibility: 10mi
Dew Point: 30°   Wind: 0mph
Humidity: 89%   Direction: NA
Pressure: 30.37"   Gusts: NA
Location:  35.07°N, 108.85°W
Report Text: KGUP 241253Z AUTO 00000KT 10SM CLR 01/M01 A3037 RMK AO2 SLP225 T00061011
Loading
Personal Weather Stations






























Interactive Weather Map
Tropical Storm Tracking
New forecast layout! Learn more

10-Day Weather Forecast

Advertisements
Track Severe Weather on mobile